Time;durP1;ratioP1;P1;durP2;ratioP2;P2;SDS_P1;SDS_P2;PMS_P1;PMS_P2;Temp;Humidity;BMP_temperature;BMP_pressure;BME280_temperature;BME280_humidity;BME280_pressure;Samples;Min_cycle;Max_cycle;Signal;HPM_P1;HPM_P2
2022/01/30 00:02:14;;;;;;;0.55;0.55;;;;;;;-5.87;85.70;97722.97;5031895;28;20072;-79
2022/01/30 00:04:41;;;;;;;0.75;0.75;;;;;;;-5.85;85.75;97713.06;5032036;28;20045;-79
2022/01/30 00:07:10;;;;;;;0.50;0.50;;;;;;;-5.86;85.64;97714.06;5031911;28;20082;-80
2022/01/30 00:09:37;;;;;;;0.60;0.60;;;;;;;-5.83;85.92;97705.03;5032053;28;20386;-80
2022/01/30 00:12:05;;;;;;;0.60;0.60;;;;;;;-5.84;85.78;97706.03;5031628;28;20103;-80
2022/01/30 00:14:36;;;;;;;0.52;0.52;;;;;;;-5.80;86.02;97705.47;5032031;28;20042;-80
2022/01/30 00:17:13;;;;;;;0.60;0.60;;;;;;;-5.81;85.75;97700.41;5030617;28;20421;-80
2022/01/30 00:19:54;;;;;;;0.55;0.55;;;;;;;-5.82;85.95;97694.34;5031923;28;20128;-79
2022/01/30 00:22:41;;;;;;;0.50;0.50;;;;;;;-5.84;85.76;97683.19;5031441;28;20524;-80
2022/01/30 00:25:18;;;;;;;0.90;0.90;;;;;;;-5.84;85.50;97685.81;5031548;28;20061;-80
2022/01/30 00:27:54;;;;;;;0.70;0.70;;;;;;;-5.90;85.19;97668.94;5032579;28;20053;-79
2022/01/30 00:30:24;;;;;;;0.80;0.80;;;;;;;-5.87;85.22;97662.53;5031971;28;20057;-80
2022/01/30 00:32:52;;;;;;;0.90;0.90;;;;;;;-5.90;84.97;97668.09;5030448;28;20528;-79
2022/01/30 00:35:38;;;;;;;0.60;0.60;;;;;;;-5.89;85.14;97667.13;5031532;28;20053;-80
2022/01/30 00:38:11;;;;;;;0.70;0.70;;;;;;;-5.83;85.03;97666.41;5035237;28;20500;-79
2022/01/30 00:40:38;;;;;;;0.73;0.73;;;;;;;-5.81;85.00;97671.50;5051312;28;20052;-79
2022/01/30 00:43:08;;;;;;;0.80;0.80;;;;;;;-5.81;84.49;97667.06;5051203;28;20534;-79
2022/01/30 00:45:36;;;;;;;0.70;0.70;;;;;;;-5.82;82.27;97649.69;5050184;28;20041;-79
2022/01/30 00:48:03;;;;;;;0.60;0.60;;;;;;;-5.84;81.87;97643.78;5050180;28;20055;-78
2022/01/30 00:50:32;;;;;;;0.73;0.73;;;;;;;-5.89;82.24;97628.53;5050116;28;20049;-79
2022/01/30 00:52:59;;;;;;;0.70;0.70;;;;;;;-5.86;82.31;97622.09;5051598;28;20083;-79
2022/01/30 00:55:30;;;;;;;0.75;0.75;;;;;;;-5.86;82.24;97621.28;5050125;28;20067;-78
2022/01/30 00:57:58;;;;;;;0.60;0.60;;;;;;;-5.91;82.42;97620.00;5050100;28;20044;-79
2022/01/30 01:00:26;;;;;;;0.70;0.70;;;;;;;-5.91;82.69;97612.09;5051242;28;20053;-79
2022/01/30 01:02:53;;;;;;;0.60;0.60;;;;;;;-5.89;82.52;97604.88;5051265;28;20156;-79
2022/01/30 01:05:22;;;;;;;0.65;0.65;;;;;;;-5.85;82.52;97601.91;5049811;28;20076;-80
2022/01/30 01:07:52;;;;;;;0.73;0.73;;;;;;;-5.87;82.48;97604.72;5051143;28;20049;-80
2022/01/30 01:13:50;;;;;;;0.40;0.40;;;;;;;-5.86;81.21;97589.75;5050146;28;20049;-80
2022/01/30 01:24:07;;;;;;;0.70;0.70;;;;;;;-5.76;80.07;97574.56;5012074;28;20077;-78
2022/01/30 01:26:36;;;;;;;0.60;0.60;;;;;;;-5.79;80.25;97575.75;5024557;28;20144;-78
2022/01/30 01:29:08;;;;;;;0.70;0.70;;;;;;;-5.81;80.37;97577.72;5002008;28;20149;-78
2022/01/30 01:31:35;;;;;;;0.70;0.70;;;;;;;-5.82;80.60;97568.22;5025187;28;20049;-77
2022/01/30 01:36:48;;;;;;;0.80;0.80;;;;;;;-5.87;80.79;97567.94;5032646;28;20119;-79
2022/01/30 01:39:15;;;;;;;0.85;0.85;;;;;;;-5.86;81.14;97566.13;5012253;28;20056;-79
2022/01/30 01:41:42;;;;;;;0.68;0.68;;;;;;;-5.91;81.53;97562.19;5012678;28;20045;-77
2022/01/30 01:44:17;;;;;;;0.82;0.82;;;;;;;-5.86;81.83;97560.84;5012402;28;20046;-79
2022/01/30 01:46:46;;;;;;;0.70;0.70;;;;;;;-5.93;82.06;97566.78;5012682;28;20057;-79
2022/01/30 01:49:20;;;;;;;0.80;0.80;;;;;;;-5.95;82.31;97555.69;4995914;28;20070;-79
2022/01/30 01:52:01;;;;;;;0.53;0.53;;;;;;;-5.97;82.72;97551.63;5012642;28;20054;-77
2022/01/30 01:54:28;;;;;;;0.77;0.77;;;;;;;-6.06;83.18;97557.91;5022093;28;20307;-78
2022/01/30 01:56:56;;;;;;;0.70;0.70;;;;;;;-6.07;83.47;97549.22;5050350;28;20041;-78
2022/01/30 01:59:32;;;;;;;0.65;0.65;;;;;;;-6.03;83.54;97545.22;5049687;28;20045;-79
2022/01/30 02:02:18;;;;;;;0.60;0.60;;;;;;;-6.12;83.59;97547.09;5032986;28;20076;-79
2022/01/30 02:04:46;;;;;;;0.80;0.80;;;;;;;-6.09;83.87;97539.88;5033225;28;20126;-79
2022/01/30 02:07:48;;;;;;;0.50;0.50;;;;;;;-6.08;83.62;97538.88;5033673;28;20053;-77
2022/01/30 02:10:12;;;;;;;0.77;0.77;;;;;;;-6.04;83.55;97532.28;5032870;28;20073;-79
2022/01/30 02:12:48;;;;;;;0.60;0.60;;;;;;;-6.02;83.10;97532.94;5034251;28;20057;-79
2022/01/30 02:15:46;;;;;;;;;;;;;;;-6.02;83.09;97522.44;5033130;28;20467;-79
2022/01/30 02:24:06;;;;;;;0.60;0.60;;;;;;;-6.02;82.59;97501.41;5018150;28;20053;-79
2022/01/30 02:26:36;;;;;;;0.50;0.50;;;;;;;-6.03;82.21;97484.81;5032970;28;20398;-79
2022/01/30 02:29:04;;;;;;;0.60;0.60;;;;;;;-6.02;82.21;97483.84;5032804;28;20452;-80
2022/01/30 02:31:35;;;;;;;0.60;0.60;;;;;;;-6.01;82.27;97482.03;5032855;28;20072;-79
2022/01/30 02:34:03;;;;;;;0.70;0.70;;;;;;;-6.03;82.27;97479.56;5032943;28;20050;-80
2022/01/30 02:36:31;;;;;;;0.63;0.63;;;;;;;-5.99;82.47;97478.22;5032980;28;20053;-80
2022/01/30 02:38:59;;;;;;;0.80;0.80;;;;;;;-5.96;82.12;97480.50;5016372;28;20099;-80
2022/01/30 02:41:28;;;;;;;0.70;0.70;;;;;;;-5.95;82.06;97455.03;5032607;28;20133;-79
2022/01/30 02:44:10;;;;;;;0.68;0.68;;;;;;;-5.96;82.18;97471.78;5032912;28;20053;-79
2022/01/30 02:46:42;;;;;;;0.70;0.70;;;;;;;-5.95;82.13;97468.16;5033793;28;20084;-80
2022/01/30 02:49:24;;;;;;;0.60;0.60;;;;;;;-5.97;82.21;97473.63;5032061;28;20496;-78
2022/01/30 02:51:56;;;;;;;0.77;0.77;;;;;;;-5.99;82.27;97470.34;5033681;28;20136;-79
2022/01/30 02:54:24;;;;;;;0.40;0.40;;;;;;;-5.94;82.46;97461.94;5032135;28;20057;-79
2022/01/30 02:56:53;;;;;;;0.60;0.60;;;;;;;-5.95;82.38;97461.13;5032694;28;20045;-80
2022/01/30 02:59:20;;;;;;;0.70;0.70;;;;;;;-5.97;82.39;97451.78;5015669;28;20053;-78
2022/01/30 03:01:48;;;;;;;0.80;0.80;;;;;;;-5.97;82.57;97451.78;5032688;28;20056;-80
2022/01/30 03:04:16;;;;;;;0.80;0.80;;;;;;;-6.00;82.61;97457.38;5032217;28;20053;-80
2022/01/30 03:06:46;;;;;;;0.73;0.73;;;;;;;-6.01;82.70;97453.13;5032711;28;20049;-80
2022/01/30 03:09:30;;;;;;;0.70;0.70;;;;;;;-6.01;82.60;97446.06;5032206;28;20060;-80
2022/01/30 03:11:57;;;;;;;0.70;0.70;;;;;;;-5.96;82.71;97442.91;5033916;28;20053;-80
2022/01/30 03:14:25;;;;;;;0.60;0.60;;;;;;;-5.97;82.64;97444.72;5032119;28;20520;-80
2022/01/30 03:16:53;;;;;;;0.70;0.70;;;;;;;-6.00;82.88;97439.81;5032043;28;20046;-79
2022/01/30 03:19:21;;;;;;;0.60;0.60;;;;;;;-5.99;82.78;97430.13;5033339;28;20057;-80
2022/01/30 03:21:48;;;;;;;0.70;0.70;;;;;;;-6.01;82.54;97438.16;5031842;28;20104;-79
2022/01/30 03:24:16;;;;;;;0.90;0.90;;;;;;;-6.02;82.93;97427.88;5031696;28;20072;-79
2022/01/30 03:26:44;;;;;;;0.52;0.52;;;;;;;-6.04;82.74;97427.22;5032289;28;20045;-79
2022/01/30 03:29:32;;;;;;;0.73;0.73;;;;;;;-6.02;82.97;97428.66;5032918;28;20053;-80
2022/01/30 03:32:00;;;;;;;0.60;0.60;;;;;;;-6.02;83.00;97431.28;5031859;28;20046;-80
2022/01/30 03:34:27;;;;;;;0.70;0.70;;;;;;;-6.04;83.01;97425.41;5031527;28;20806;-80
2022/01/30 03:36:55;;;;;;;0.70;0.70;;;;;;;-6.03;83.28;97426.22;5033200;28;20136;-80
2022/01/30 03:39:22;;;;;;;0.60;0.60;;;;;;;-6.02;83.25;97412.09;5031564;28;20052;-80
2022/01/30 03:41:50;;;;;;;0.70;0.70;;;;;;;-6.03;83.17;97416.50;4998986;28;20045;-80
2022/01/30 03:44:18;;;;;;;0.68;0.68;;;;;;;-6.05;83.14;97404.56;5031282;28;20128;-79
2022/01/30 03:46:46;;;;;;;0.50;0.50;;;;;;;-6.06;83.27;97408.19;5031305;28;20050;-80
2022/01/30 03:49:23;;;;;;;0.63;0.63;;;;;;;-5.98;82.99;97394.97;5031082;28;20056;-79
2022/01/30 03:51:51;;;;;;;0.75;0.75;;;;;;;-6.02;82.60;97386.66;5031317;28;20135;-80
2022/01/30 03:54:32;;;;;;;0.70;0.70;;;;;;;-6.03;82.57;97389.44;5030879;28;20053;-79
2022/01/30 03:57:01;;;;;;;0.70;0.70;;;;;;;-6.09;82.87;97382.28;5030789;28;20512;-78
2022/01/30 03:59:29;;;;;;;0.70;0.70;;;;;;;-6.07;83.09;97378.47;5030723;28;20128;-79
2022/01/30 04:01:57;;;;;;;0.70;0.70;;;;;;;-6.02;83.21;97370.06;5031038;28;20070;-79
2022/01/30 04:04:27;;;;;;;0.65;0.65;;;;;;;-5.98;83.36;97376.59;5030514;28;20199;-80
2022/01/30 04:06:58;;;;;;;0.65;0.65;;;;;;;-5.98;83.24;97385.28;5031025;28;20053;-79
2022/01/30 04:09:54;;;;;;;0.68;0.68;;;;;;;-6.01;83.22;97363.81;5026889;28;20588;-79
2022/01/30 04:12:27;;;;;;;0.70;0.70;;;;;;;-5.96;83.33;97364.09;5030971;28;20056;-79
2022/01/30 04:15:05;;;;;;;0.60;0.60;;;;;;;-6.03;83.41;97348.22;5030813;28;20048;-80
2022/01/30 04:17:54;;;;;;;0.60;0.60;;;;;;;-6.09;83.48;97350.75;5030757;28;20574;-79
2022/01/30 04:20:37;;;;;;;0.70;0.70;;;;;;;-6.09;83.79;97354.19;5030678;28;20137;-81
2022/01/30 04:23:42;;;;;;;0.60;0.60;;;;;;;-6.07;83.62;97349.59;5020399;28;20083;-79
2022/01/30 04:26:30;;;;;;;0.60;0.60;;;;;;;-6.05;83.82;97346.75;5030586;28;20536;-80
2022/01/30 04:29:27;;;;;;;0.60;0.60;;;;;;;-6.05;83.26;97349.41;5016788;28;20630;-79
2022/01/30 04:32:16;;;;;;;0.80;0.80;;;;;;;-6.05;83.07;97341.50;5029418;28;20538;-78
2022/01/30 04:35:24;;;;;;;0.55;0.55;;;;;;;-6.05;83.07;97341.50;5018875;28;20483;-80
2022/01/30 05:02:49;;;;;;;0.60;0.60;;;;;;;-6.00;82.81;97310.28;4992534;28;20054;-79
2022/01/30 05:08:37;;;;;;;0.70;0.70;;;;;;;-5.97;82.78;97318.63;4994103;28;20139;-80
2022/01/30 05:11:10;;;;;;;0.70;0.70;;;;;;;-5.97;82.72;97313.38;4996875;28;20273;-80
2022/01/30 05:13:52;;;;;;;0.55;0.55;;;;;;;-5.96;82.79;97320.25;5016463;28;20576;-81
2022/01/30 05:16:31;;;;;;;0.70;0.70;;;;;;;-5.95;82.78;97302.66;5024747;28;20050;-80
2022/01/30 05:19:19;;;;;;;0.63;0.63;;;;;;;-5.94;82.87;97315.63;5031070;28;20057;-80
2022/01/30 05:22:13;;;;;;;0.60;0.60;;;;;;;-5.96;82.98;97303.66;5010548;28;20061;-80
2022/01/30 05:24:49;;;;;;;0.60;0.60;;;;;;;-5.97;82.80;97307.31;5026877;28;20061;-82
2022/01/30 05:27:39;;;;;;;0.70;0.70;;;;;;;-6.02;83.10;97299.97;5053812;28;20059;-79
2022/01/30 05:30:25;;;;;;;0.68;0.68;;;;;;;-6.01;83.06;97300.78;5053754;28;20392;-80
2022/01/30 05:33:16;;;;;;;0.70;0.70;;;;;;;-6.04;83.09;97303.75;5046143;28;20060;-80
2022/01/30 05:35:55;;;;;;;0.68;0.68;;;;;;;-6.00;83.04;97295.34;5042593;28;20504;-81
2022/01/30 05:38:43;;;;;;;0.80;0.80;;;;;;;-6.01;82.77;97300.78;5042846;28;20061;-79
2022/01/30 05:41:36;;;;;;;0.70;0.70;;;;;;;-6.02;82.74;97294.72;5036964;28;20480;-81
2022/01/30 05:44:49;;;;;;;0.80;0.80;;;;;;;-6.03;82.74;97285.19;5018407;28;20068;-81
2022/01/30 05:47:49;;;;;;;0.70;0.70;;;;;;;-5.98;82.85;97271.50;5041807;28;20045;-80
2022/01/30 05:50:32;;;;;;;0.70;0.70;;;;;;;-5.96;83.15;97269.50;5055408;28;20041;-79
2022/01/30 05:53:04;;;;;;;0.60;0.60;;;;;;;-6.03;83.08;97279.13;5039333;28;20413;-81
2022/01/30 05:56:00;;;;;;;0.70;0.70;;;;;;;-5.98;83.26;97280.19;5025393;28;20058;-81
2022/01/30 05:58:28;;;;;;;0.80;0.80;;;;;;;-5.97;83.11;97283.66;5068840;28;20099;-82
2022/01/30 06:01:03;;;;;;;0.73;0.73;;;;;;;-5.96;82.95;97270.31;5035184;28;20085;-83
2022/01/30 06:03:30;;;;;;;0.80;0.80;;;;;;;-5.92;82.35;97265.50;5041225;28;20057;-82
2022/01/30 06:05:58;;;;;;;0.57;0.57;;;;;;;-5.92;82.35;97268.13;5027122;28;20056;-83
2022/01/30 06:08:46;;;;;;;0.65;0.65;;;;;;;-5.94;82.39;97272.78;5052683;28;20053;-84
2022/01/30 06:11:14;;;;;;;0.70;0.70;;;;;;;-5.93;82.26;97275.19;5027979;28;20045;-84
2022/01/30 06:13:41;;;;;;;0.70;0.70;;;;;;;-5.92;82.14;97262.88;5034553;28;20060;-83
2022/01/30 06:16:09;;;;;;;0.65;0.65;;;;;;;-5.93;82.03;97261.22;5053913;28;20563;-82
2022/01/30 06:18:36;;;;;;;0.68;0.68;;;;;;;-5.89;81.86;97262.50;5052974;28;20045;-82
2022/01/30 06:21:10;;;;;;;0.60;0.60;;;;;;;-5.87;81.76;97265.78;5051367;28;20616;-85
2022/01/30 06:23:52;;;;;;;0.60;0.60;;;;;;;-5.90;81.47;97258.22;5043061;28;20518;-82
2022/01/30 06:26:38;;;;;;;0.70;0.70;;;;;;;-5.96;82.04;97265.06;5040059;28;20531;-86
2022/01/30 06:29:24;;;;;;;0.70;0.70;;;;;;;-5.93;82.27;97263.88;5053541;28;20048;-83
2022/01/30 06:32:10;;;;;;;0.70;0.70;;;;;;;-5.90;82.24;97255.59;5044624;28;20059;-85
2022/01/30 06:34:56;;;;;;;0.60;0.60;;;;;;;-5.90;82.16;97252.97;4686349;28;10000563;-84
2022/01/30 06:37:42;;;;;;;0.60;0.60;;;;;;;-5.86;81.98;97270.03;5036639;28;20055;-85
2022/01/30 06:40:32;;;;;;;0.60;0.60;;;;;;;-5.81;80.79;97267.66;5015837;28;20413;-81
2022/01/30 06:43:08;;;;;;;0.60;0.60;;;;;;;-5.82;80.77;97275.72;5041452;28;20119;-81
2022/01/30 06:45:55;;;;;;;0.60;0.60;;;;;;;-5.78;80.09;97261.22;5029200;28;20522;-81
2022/01/30 06:48:41;;;;;;;0.57;0.57;;;;;;;-5.88;79.74;97272.00;5040668;28;20158;-82
2022/01/30 06:51:27;;;;;;;0.70;0.70;;;;;;;-5.89;79.49;97250.19;5030102;28;20042;-86
2022/01/30 06:54:29;;;;;;;0.70;0.70;;;;;;;-5.86;79.86;97248.19;5021245;28;20443;-82
2022/01/30 06:57:17;;;;;;;0.68;0.68;;;;;;;-5.84;79.98;97252.28;5034423;28;20160;-91
2022/01/30 07:00:03;;;;;;;0.90;0.90;;;;;;;-5.83;80.13;97253.88;5045761;28;20496;-81
2022/01/30 07:02:50;;;;;;;0.82;0.82;;;;;;;-5.78;80.22;97248.91;5050949;28;20045;-83
2022/01/30 07:05:46;;;;;;;0.50;0.50;;;;;;;-5.75;80.51;97253.78;4993005;28;20497;-83
2022/01/30 07:08:24;;;;;;;0.80;0.80;;;;;;;-5.76;80.73;97254.78;4992948;28;20112;-82
2022/01/30 07:10:51;;;;;;;0.60;0.60;;;;;;;-5.73;80.94;97243.91;5015227;28;20077;-87
2022/01/30 07:13:18;;;;;;;0.70;0.70;;;;;;;-5.73;81.12;97243.09;4979161;28;20497;-85
2022/01/30 07:15:45;;;;;;;0.70;0.70;;;;;;;-5.64;81.00;97246.44;5010311;28;20064;-80
2022/01/30 07:18:12;;;;;;;0.68;0.68;;;;;;;-5.64;80.81;97246.44;5010854;28;20050;-83
2022/01/30 07:20:39;;;;;;;0.70;0.70;;;;;;;-5.66;80.88;97234.28;5010990;28;20060;-82
2022/01/30 07:23:06;;;;;;;0.60;0.60;;;;;;;-5.65;80.98;97250.88;5010757;28;20081;-86
2022/01/30 07:25:33;;;;;;;0.80;0.80;;;;;;;-5.58;80.94;97227.28;5010688;28;20529;-84
2022/01/30 07:28:00;;;;;;;0.65;0.65;;;;;;;-5.51;80.31;97241.31;5012280;28;20050;-87
2022/01/30 07:30:27;;;;;;;0.70;0.70;;;;;;;-5.46;80.06;97239.75;4979814;28;20069;-86
2022/01/30 07:32:55;;;;;;;0.60;0.60;;;;;;;-5.47;80.19;97237.31;5010855;28;20045;-88
2022/01/30 07:35:22;;;;;;;0.73;0.73;;;;;;;-5.46;80.10;97229.25;4996141;28;20072;-86
2022/01/30 07:37:51;;;;;;;0.70;0.70;;;;;;;-5.43;79.83;97230.69;5015021;28;20096;-87
2022/01/30 07:40:19;;;;;;;0.60;0.60;;;;;;;-5.37;79.50;97237.00;5016252;28;20069;-85
2022/01/30 07:42:46;;;;;;;0.70;0.70;;;;;;;-5.40;78.94;97235.56;5044028;28;20064;-84
2022/01/30 07:45:16;;;;;;;0.60;0.60;;;;;;;-5.37;78.82;97247.53;5035407;28;20052;-83
2022/01/30 07:47:46;;;;;;;0.60;0.60;;;;;;;-5.35;78.45;97224.50;5052785;28;20126;-83
2022/01/30 07:50:15;;;;;;;0.65;0.65;;;;;;;-5.40;78.23;97216.34;5052698;28;20071;-83
2022/01/30 07:52:42;;;;;;;0.70;0.70;;;;;;;-5.36;78.09;97226.31;5052478;28;20218;-83
2022/01/30 07:55:09;;;;;;;0.75;0.75;;;;;;;-5.35;77.97;97224.50;5051140;28;20049;-83
2022/01/30 07:57:36;;;;;;;0.93;0.93;;;;;;;-5.32;77.78;97197.81;5051861;28;20220;-83
2022/01/30 08:00:05;;;;;;;0.80;0.80;;;;;;;-5.30;77.70;97206.34;5051189;28;20052;-82
2022/01/30 08:02:38;;;;;;;1.00;1.00;;;;;;;-5.21;77.28;97191.25;5050711;28;20059;-83
2022/01/30 08:05:06;;;;;;;1.00;1.00;;;;;;;-5.13;77.40;97191.94;5051993;28;20459;-85
2022/01/30 08:07:34;;;;;;;0.60;0.60;;;;;;;-5.13;76.86;97186.69;5050951;28;20049;-84
2022/01/30 08:10:01;;;;;;;0.63;0.63;;;;;;;-5.20;76.78;97193.69;5051918;28;20283;-85
2022/01/30 08:12:28;;;;;;;0.80;0.80;;;;;;;-5.21;76.85;97192.06;5051119;28;20441;-84
2022/01/30 08:14:55;;;;;;;0.80;0.80;;;;;;;-5.20;76.85;97190.25;5052514;28;20048;-84
2022/01/30 08:17:23;;;;;;;0.80;0.80;;;;;;;-5.20;76.97;97216.56;5050652;28;20044;-86
2022/01/30 08:19:51;;;;;;;0.90;0.90;;;;;;;-5.17;76.96;97208.28;5052259;28;20462;-85
2022/01/30 08:22:19;;;;;;;1.00;1.00;;;;;;;-5.17;77.04;97210.91;5051241;28;20055;-86
2022/01/30 08:24:46;;;;;;;0.60;0.60;;;;;;;-5.27;77.00;97200.69;5052002;28;20057;-84
2022/01/30 08:27:13;;;;;;;0.68;0.68;;;;;;;-5.30;76.57;97204.53;5052292;28;20045;-84
2022/01/30 08:29:41;;;;;;;0.90;0.90;;;;;;;-5.16;76.68;97199.41;5052230;28;20095;-87
2022/01/30 08:32:11;;;;;;;0.70;0.70;;;;;;;-5.23;76.73;97200.13;5050548;28;20049;-84
2022/01/30 08:34:41;;;;;;;0.90;0.90;;;;;;;-5.07;76.96;97219.28;5050065;28;20593;-82
2022/01/30 08:37:10;;;;;;;0.80;0.80;;;;;;;-5.01;76.54;97200.13;5051636;28;20103;-84
2022/01/30 08:39:37;;;;;;;0.90;0.90;;;;;;;-4.96;76.30;97195.13;5033713;28;20095;-83
2022/01/30 08:42:04;;;;;;;0.90;0.90;;;;;;;-4.95;75.83;97180.94;5050760;28;20052;-82
2022/01/30 08:44:32;;;;;;;1.00;1.00;;;;;;;-4.79;75.57;97162.22;5049882;28;20067;-82
2022/01/30 08:46:59;;;;;;;0.80;0.80;;;;;;;-4.66;75.30;97165.97;5052053;28;20057;-85
2022/01/30 08:49:27;;;;;;;0.98;0.98;;;;;;;-4.71;75.22;97171.00;5052434;28;20048;-85
2022/01/30 08:51:54;;;;;;;0.70;0.70;;;;;;;-4.68;74.99;97137.22;5052054;28;20063;-82
2022/01/30 08:54:21;;;;;;;0.73;0.73;;;;;;;-4.64;74.86;97174.47;5051539;28;20060;-85
2022/01/30 08:56:49;;;;;;;0.80;0.80;;;;;;;-4.61;74.54;97174.94;5051476;28;20045;-81
2022/01/30 08:59:16;;;;;;;1.08;1.08;;;;;;;-4.71;74.25;97157.81;5051248;28;20049;-82
2022/01/30 09:01:43;;;;;;;0.80;0.80;;;;;;;-4.71;74.30;97171.81;5051060;28;20084;-83
2022/01/30 09:04:11;;;;;;;0.90;0.90;;;;;;;-4.65;74.40;97163.16;5082963;28;20534;-83
2022/01/30 09:06:38;;;;;;;1.00;1.00;;;;;;;-4.52;73.74;97174.78;5049830;28;20041;-83
2022/01/30 09:09:06;;;;;;;0.90;0.90;;;;;;;-4.48;73.77;97165.47;5051344;28;20041;-82
2022/01/30 09:11:34;;;;;;;0.90;0.90;;;;;;;-4.31;73.68;97150.97;5051059;28;20045;-82
2022/01/30 09:14:01;;;;;;;1.05;1.05;;;;;;;-3.99;73.57;97154.75;5050773;28;20115;-82
2022/01/30 09:16:29;;;;;;;0.90;0.90;;;;;;;-3.59;72.13;97151.44;5049537;28;20091;-83
2022/01/30 09:18:57;;;;;;;1.00;1.00;;;;;;;-2.54;69.59;97154.28;5050858;28;20057;-83
2022/01/30 09:21:28;;;;;;;1.58;1.48;;;;;;;-1.93;67.34;97148.59;5051061;28;20049;-83
2022/01/30 09:23:57;;;;;;;1.60;1.50;;;;;;;-0.73;63.56;97118.69;5050585;28;20611;-84
2022/01/30 09:26:24;;;;;;;1.70;1.60;;;;;;;-0.04;61.84;97112.22;5050558;28;20045;-83
2022/01/30 09:28:51;;;;;;;1.67;1.58;;;;;;;-0.03;60.06;97111.16;5051017;28;20553;-82
2022/01/30 09:31:19;;;;;;;1.30;1.20;;;;;;;-0.12;60.71;97120.47;5051572;28;20049;-83
2022/01/30 09:33:46;;;;;;;1.40;1.30;;;;;;;0.10;59.57;97118.19;5050811;28;20084;-83
2022/01/30 09:36:14;;;;;;;1.00;1.00;;;;;;;-0.23;59.01;97098.19;5049716;28;20087;-83
2022/01/30 09:38:46;;;;;;;1.08;1.08;;;;;;;-0.77;60.60;97104.25;5050715;28;20543;-85
2022/01/30 09:41:15;;;;;;;0.90;0.90;;;;;;;-1.72;62.62;97118.41;5049917;28;20057;-83
2022/01/30 09:43:44;;;;;;;1.00;1.00;;;;;;;-2.32;64.32;97118.66;5033208;28;20483;-81
2022/01/30 09:46:11;;;;;;;1.00;1.00;;;;;;;-2.65;65.67;97110.84;5050609;28;20057;-81
2022/01/30 09:48:39;;;;;;;1.00;1.00;;;;;;;-2.80;65.89;97118.97;5033267;28;20056;-85
2022/01/30 09:51:08;;;;;;;1.10;1.10;;;;;;;-2.97;66.26;97123.88;5050783;28;20095;-85
2022/01/30 09:53:37;;;;;;;1.00;1.00;;;;;;;-3.09;67.07;97121.06;5049647;28;20053;-84
2022/01/30 09:56:06;;;;;;;0.70;0.70;;;;;;;-3.11;67.03;97127.53;5051264;28;20063;-83
2022/01/30 09:58:33;;;;;;;1.13;1.13;;;;;;;-3.21;67.04;97108.66;5048083;28;20048;-82
2022/01/30 10:01:01;;;;;;;0.80;0.80;;;;;;;-3.40;67.27;97108.44;5052412;28;20123;-82
2022/01/30 10:03:28;;;;;;;0.80;0.80;;;;;;;-3.44;67.67;97117.78;5051405;28;20044;-83
2022/01/30 10:06:13;;;;;;;0.90;0.90;;;;;;;-3.34;67.14;97104.19;5052989;28;20053;-83
2022/01/30 10:08:42;;;;;;;1.03;1.03;;;;;;;-3.36;67.26;97101.75;5039827;28;20699;-82
2022/01/30 10:14:14;;;;;;;0.80;0.80;;;;;;;-3.56;68.02;97085.91;5042727;28;20104;-82
2022/01/30 10:16:41;;;;;;;0.98;0.98;;;;;;;-3.42;68.19;97091.19;5033830;28;20054;-81
2022/01/30 10:19:12;;;;;;;1.00;1.00;;;;;;;-3.33;68.16;97093.44;5032678;28;20459;-81
2022/01/30 10:21:40;;;;;;;1.00;1.00;;;;;;;-3.36;67.70;97103.59;5037454;28;20057;-81
2022/01/30 10:24:25;;;;;;;1.00;1.00;;;;;;;-3.41;67.33;97098.09;5045240;28;20049;-83
2022/01/30 10:26:54;;;;;;;0.93;0.93;;;;;;;-3.42;67.92;97091.19;5049888;28;20049;-83
2022/01/30 10:29:25;;;;;;;0.90;0.90;;;;;;;-3.39;67.85;97067.03;5048585;28;20094;-82
2022/01/30 10:32:09;;;;;;;1.00;1.00;;;;;;;-3.25;67.98;97084.50;5042962;28;20049;-80
2022/01/30 10:34:38;;;;;;;1.00;1.00;;;;;;;-3.23;67.58;97079.84;5048341;28;20045;-84
2022/01/30 10:37:19;;;;;;;0.90;0.90;;;;;;;-3.09;67.63;97078.81;5053622;28;20080;-83
2022/01/30 10:40:06;;;;;;;1.00;1.00;;;;;;;-3.06;67.35;97073.13;5044505;28;20052;-84
2022/01/30 10:42:41;;;;;;;1.00;1.00;;;;;;;-3.08;67.60;97069.88;5067186;28;20156;-82
2022/01/30 10:45:29;;;;;;;1.00;1.00;;;;;;;-3.01;67.59;97061.13;5037237;28;20056;-84
2022/01/30 10:48:17;;;;;;;1.02;1.02;;;;;;;-3.08;67.54;97064.59;5043245;28;20045;-83
2022/01/30 10:50:48;;;;;;;1.02;1.02;;;;;;;-3.05;67.77;97050.19;5050156;28;20044;-82
2022/01/30 10:53:25;;;;;;;1.35;1.25;;;;;;;-3.03;67.36;97048.16;5052519;28;20057;-83
2022/01/30 10:55:53;;;;;;;0.95;0.95;;;;;;;-3.03;67.46;97056.06;5049822;28;20049;-83
2022/01/30 10:58:22;;;;;;;1.00;1.00;;;;;;;-2.98;67.72;97056.25;5050003;28;20102;-83
2022/01/30 11:00:54;;;;;;;0.90;0.90;;;;;;;-2.93;67.42;97035.34;5041571;28;20401;-83
2022/01/30 11:03:38;;;;;;;1.00;1.00;;;;;;;-3.04;67.62;97035.97;5023286;28;20541;-83
2022/01/30 11:06:10;;;;;;;1.00;1.00;;;;;;;-3.03;67.50;97034.16;5041871;28;20095;-82
2022/01/30 11:08:41;;;;;;;1.10;1.10;;;;;;;-3.12;67.72;97028.25;5051452;28;20045;-83
2022/01/30 11:11:30;;;;;;;1.00;1.00;;;;;;;-3.13;67.48;97014.28;5051557;28;20056;-87
2022/01/30 11:14:02;;;;;;;1.02;1.02;;;;;;;-3.23;67.41;97021.78;5048737;28;20049;-86
2022/01/30 11:19:20;;;;;;;1.02;1.02;;;;;;;-3.23;67.55;97010.44;5050477;28;20049;-85
2022/01/30 11:22:05;;;;;;;1.00;1.00;;;;;;;-3.13;67.69;97018.75;5033386;28;20049;-87
2022/01/30 11:24:54;;;;;;;1.10;1.10;;;;;;;-3.08;67.56;97019.75;5043995;28;20064;-85
2022/01/30 11:27:22;;;;;;;0.90;0.90;;;;;;;-3.12;67.67;96991.31;5047735;28;20044;-87
2022/01/30 11:30:00;;;;;;;1.02;1.02;;;;;;;-3.09;67.85;96999.66;5038799;28;20045;-84
2022/01/30 11:32:29;;;;;;;1.10;1.10;;;;;;;-3.06;67.48;96985.25;5054072;28;20051;-88
2022/01/30 11:34:57;;;;;;;1.10;1.10;;;;;;;-3.14;67.73;96978.34;5055599;28;20040;-89
2022/01/30 11:37:28;;;;;;;1.17;1.15;;;;;;;-3.00;67.80;97002.06;5054365;28;20411;-87
2022/01/30 11:39:58;;;;;;;0.98;0.98;;;;;;;-3.11;68.23;96985.84;5036800;28;20053;-87
2022/01/30 11:42:36;;;;;;;1.02;1.02;;;;;;;-3.08;68.05;96998.63;5036265;28;20048;-84
2022/01/30 11:45:06;;;;;;;0.88;0.88;;;;;;;-2.98;68.10;96984.19;5044979;28;20060;-87
2022/01/30 11:48:00;;;;;;;1.00;1.00;;;;;;;-3.08;68.38;96972.22;5053038;28;20507;-84
2022/01/30 11:50:34;;;;;;;0.90;0.90;;;;;;;-3.14;68.50;96985.44;5035593;28;20610;-84
2022/01/30 11:53:07;;;;;;;1.05;1.05;;;;;;;-3.27;68.97;96978.34;5051174;28;20640;-85
2022/01/30 11:55:39;;;;;;;0.90;0.90;;;;;;;-3.35;69.56;96983.84;5050832;28;20044;-85
2022/01/30 11:58:11;;;;;;;1.00;1.00;;;;;;;-3.35;69.42;96984.66;5053281;28;20066;-84
2022/01/30 12:00:43;;;;;;;0.90;0.90;;;;;;;-3.30;69.30;96995.41;5020746;28;20073;-84
2022/01/30 12:03:27;;;;;;;1.00;1.00;;;;;;;-3.29;69.61;96980.41;5033927;28;20049;-87
2022/01/30 12:05:57;;;;;;;0.90;0.90;;;;;;;-3.39;69.48;96993.19;5059605;28;20053;-87
2022/01/30 12:08:48;;;;;;;1.02;1.02;;;;;;;-3.46;69.92;96990.56;5047983;28;20041;-86
2022/01/30 12:11:39;;;;;;;0.80;0.80;;;;;;;-3.48;69.91;96979.41;5050622;28;20512;-87
2022/01/30 12:14:12;;;;;;;0.80;0.80;;;;;;;-3.49;69.86;96975.97;5052086;28;20045;-86
2022/01/30 12:17:05;;;;;;;1.00;1.00;;;;;;;-3.52;70.03;96981.66;5053870;28;20072;-86
2022/01/30 12:19:47;;;;;;;1.00;1.00;;;;;;;-3.54;70.19;96980.25;5050375;28;20057;-83
2022/01/30 12:22:18;;;;;;;0.98;0.98;;;;;;;-3.55;70.22;96979.41;5038873;28;20049;-84
2022/01/30 12:24:47;;;;;;;0.85;0.85;;;;;;;-3.53;70.26;96973.94;5037635;28;20060;-81
2022/01/30 12:27:15;;;;;;;0.90;0.90;;;;;;;-3.53;70.23;96982.66;5050056;28;20060;-84
2022/01/30 12:29:50;;;;;;;0.70;0.70;;;;;;;-3.65;70.50;96981.66;5052666;28;20063;-85
2022/01/30 12:32:24;;;;;;;0.80;0.80;;;;;;;-3.68;70.43;96987.34;5042042;28;20049;-87
2022/01/30 12:34:54;;;;;;;0.80;0.80;;;;;;;-3.71;70.89;96969.28;5067593;28;20045;-86
2022/01/30 12:37:24;;;;;;;1.00;1.00;;;;;;;-3.81;70.90;96990.78;5039297;28;20075;-87
2022/01/30 12:39:52;;;;;;;0.80;0.80;;;;;;;-3.80;71.00;96991.59;5051449;28;20075;-89
2022/01/30 12:42:21;;;;;;;1.00;1.00;;;;;;;-3.79;70.99;96982.69;5034738;28;20052;-84
2022/01/30 12:44:49;;;;;;;0.80;0.80;;;;;;;-3.88;71.33;96981.25;5015702;28;20049;-83
2022/01/30 12:47:16;;;;;;;0.90;0.90;;;;;;;-3.89;71.50;96985.72;5052698;28;20049;-87
2022/01/30 12:49:50;;;;;;;0.88;0.88;;;;;;;-4.01;71.49;96969.69;5040695;28;20402;-88
2022/01/30 12:52:36;;;;;;;0.80;0.80;;;;;;;-4.03;71.78;96976.97;5046177;28;20467;-85
2022/01/30 12:55:12;;;;;;;0.90;0.90;;;;;;;-4.15;72.17;96968.88;5043223;28;20100;-85
2022/01/30 12:57:41;;;;;;;0.95;0.95;;;;;;;-4.04;72.29;96983.28;5045664;28;20052;-86
2022/01/30 13:00:11;;;;;;;1.00;1.00;;;;;;;-4.05;72.62;96978.19;5040871;28;20041;-84